Time;durP1;ratioP1;P1;durP2;ratioP2;P2;SDS_P1;SDS_P2;PMS_P1;PMS_P2;Temp;Humidity;BMP_temperature;BMP_pressure;BME280_temperature;BME280_humidity;BME280_pressure;Samples;Min_cycle;Max_cycle;Signal;HPM_P1;HPM_P2
2022/10/27 00:02:02;;;;;;;18.02;4.40;;;;;;;10.84;69.20;100694.88;10344706;28;20053;-67
2022/10/27 00:07:03;;;;;;;11.15;4.80;;;;;;;10.95;69.28;100690.00;10343905;28;20085;-66
2022/10/27 00:12:05;;;;;;;16.17;4.95;;;;;;;11.02;68.98;100692.22;10344681;28;20062;-66
2022/10/27 00:17:07;;;;;;;47.88;8.23;;;;;;;11.02;68.69;100692.22;10343209;28;20053;-66
2022/10/27 00:22:09;;;;;;;116.97;9.65;;;;;;;10.88;68.94;100692.06;10345315;28;20541;-66
2022/10/27 00:27:11;;;;;;;68.82;5.57;;;;;;;10.91;69.55;100689.28;10341555;28;20099;-66
2022/10/27 00:32:13;;;;;;;103.75;7.20;;;;;;;11.01;69.39;100687.91;10344554;28;20057;-66
2022/10/27 00:37:15;;;;;;;128.18;11.75;;;;;;;11.00;68.94;100696.69;10343849;28;20061;-66
2022/10/27 00:42:16;;;;;;;196.27;10.35;;;;;;;10.89;69.14;100691.13;10343261;28;20477;-66
2022/10/27 00:47:33;;;;;;;147.80;7.30;;;;;;;10.63;69.37;100694.16;10340757;28;20081;-66
2022/10/27 00:52:45;;;;;;;180.00;6.55;;;;;;;10.58;69.71;100696.16;10344070;28;20900;-66
2022/10/27 00:57:50;;;;;;;261.63;12.45;;;;;;;10.59;69.84;100697.84;10339209;28;20073;-66
2022/10/27 01:02:54;;;;;;;175.85;9.60;;;;;;;10.74;69.86;100706.72;10342423;28;20073;-66
2022/10/27 01:07:59;;;;;;;66.15;9.90;;;;;;;10.75;69.59;100708.41;10342542;28;20050;-66
2022/10/27 01:13:01;;;;;;;17.20;5.05;;;;;;;10.77;69.59;100704.81;10341734;28;20565;-66
2022/10/27 01:18:10;;;;;;;19.58;5.90;;;;;;;10.86;69.64;100706.13;10342996;28;20707;-66
2022/10/27 01:23:54;;;;;;;63.58;9.50;;;;;;;10.87;69.14;100706.06;10343407;28;20085;-67
2022/10/27 01:29:12;;;;;;;32.40;7.30;;;;;;;10.91;69.45;100702.38;10348524;28;20049;-66
2022/10/27 01:34:27;;;;;;;54.80;8.02;;;;;;;11.04;69.10;100700.88;10341092;28;20077;-67
2022/10/27 01:39:54;;;;;;;47.17;7.28;;;;;;;11.05;68.77;100701.75;10342082;28;20049;-67
2022/10/27 01:44:57;;;;;;;202.98;10.15;;;;;;;11.09;68.53;100705.91;10342799;28;20189;-67
2022/10/27 01:49:59;;;;;;;251.15;12.57;;;;;;;11.12;68.73;100705.72;10341417;28;20053;-66
2022/10/27 01:55:02;;;;;;;200.07;9.13;;;;;;;11.08;68.97;100702.41;10342411;28;20050;-67
2022/10/27 02:00:07;;;;;;;108.85;9.40;;;;;;;11.10;68.82;100702.34;10339158;28;20128;-67
2022/10/27 02:05:16;;;;;;;112.32;10.20;;;;;;;11.07;68.78;100707.75;10348974;28;20580;-67
2022/10/27 02:10:30;;;;;;;291.00;12.05;;;;;;;10.76;69.09;100705.75;10350725;28;20054;-65
2022/10/27 02:15:47;;;;;;;207.55;8.82;;;;;;;10.67;69.61;100710.53;10355790;28;20085;-65
2022/10/27 02:20:52;;;;;;;208.18;15.15;;;;;;;10.80;69.32;100716.91;10356986;28;20046;-65
2022/10/27 02:26:25;;;;;;;176.77;11.07;;;;;;;10.66;69.73;100708.88;10358725;28;20525;-65
2022/10/27 02:31:32;;;;;;;140.90;9.30;;;;;;;10.70;69.49;100710.41;10359492;28;20057;-65
2022/10/27 02:36:35;;;;;;;153.65;10.93;;;;;;;10.77;69.62;100712.66;10355975;28;20061;-65
2022/10/27 02:41:38;;;;;;;134.10;12.18;;;;;;;10.70;69.53;100726.97;10357727;28;20135;-65
2022/10/27 02:46:39;;;;;;;62.42;5.55;;;;;;;10.61;69.62;100713.44;10355124;28;20046;-65
2022/10/27 02:51:45;;;;;;;103.50;8.70;;;;;;;10.51;70.00;100715.66;10356534;28;20053;-65
2022/10/27 02:56:47;;;;;;;158.07;8.25;;;;;;;10.56;69.97;100718.94;10356517;28;20053;-65
2022/10/27 03:01:49;;;;;;;146.27;7.10;;;;;;;10.67;70.01;100711.41;10355258;28;20089;-65
2022/10/27 03:06:51;;;;;;;224.20;10.32;;;;;;;10.65;69.85;100712.38;10347860;28;20061;-65
2022/10/27 03:11:53;;;;;;;514.85;21.58;;;;;;;10.47;70.41;100717.59;10347456;28;20065;-65
2022/10/27 03:16:54;;;;;;;450.90;18.88;;;;;;;10.46;70.48;100728.13;10349104;28;20144;-65
2022/10/27 03:21:56;;;;;;;506.27;17.70;;;;;;;10.48;70.49;100721.06;10347089;28;20096;-65
2022/10/27 03:26:58;;;;;;;283.27;11.55;;;;;;;10.50;70.62;100719.22;10347336;28;20054;-65
2022/10/27 03:32:00;;;;;;;404.02;15.52;;;;;;;10.52;70.52;100724.38;10348736;28;20050;-65
2022/10/27 03:37:02;;;;;;;473.08;24.45;;;;;;;10.54;70.55;100722.53;10347530;28;20073;-65
2022/10/27 03:42:04;;;;;;;429.10;17.80;;;;;;;10.61;70.29;100716.94;10345844;28;20061;-65
2022/10/27 03:47:06;;;;;;;402.45;21.67;;;;;;;10.71;70.14;100723.41;10345961;28;20093;-65
2022/10/27 03:52:08;;;;;;;254.80;12.00;;;;;;;10.59;70.55;100731.00;10347596;28;20139;-66
2022/10/27 03:57:12;;;;;;;310.48;10.65;;;;;;;10.58;70.34;100734.53;10347065;28;20049;-66
2022/10/27 04:02:13;;;;;;;558.63;21.45;;;;;;;10.55;70.24;100739.91;10345409;28;20057;-66
2022/10/27 04:07:15;;;;;;;428.77;16.05;;;;;;;10.63;70.35;100733.41;10347552;28;20049;-66
2022/10/27 04:12:17;;;;;;;507.67;21.02;;;;;;;10.48;70.20;100734.94;10346127;28;20120;-68
2022/10/27 04:17:19;;;;;;;466.80;20.33;;;;;;;10.41;70.43;100749.25;10346943;28;20085;-67
2022/10/27 04:22:21;;;;;;;525.88;20.27;;;;;;;10.55;70.33;100738.13;10347362;28;20081;-67
2022/10/27 04:27:22;;;;;;;345.92;17.90;;;;;;;10.74;70.23;100727.66;10345415;28;20613;-67
2022/10/27 04:32:24;;;;;;;368.30;13.32;;;;;;;10.69;70.13;100725.25;10344731;28;20061;-67
2022/10/27 04:37:26;;;;;;;828.03;27.27;;;;;;;10.42;70.27;100742.22;10343604;28;20490;-67
2022/10/27 04:42:28;;;;;;;990.50;34.67;;;;;;;10.36;70.88;100739.91;10344403;28;20053;-67
2022/10/27 04:47:30;;;;;;;528.20;25.42;;;;;;;10.48;70.89;100741.97;10344647;28;20049;-67
2022/10/27 04:52:32;;;;;;;542.53;25.00;;;;;;;10.62;70.76;100736.94;10342734;28;20085;-67
2022/10/27 04:57:34;;;;;;;441.70;16.10;;;;;;;10.74;70.19;100718.06;10343773;28;20046;-67
2022/10/27 05:02:36;;;;;;;647.47;34.95;;;;;;;10.72;69.78;100721.66;10343185;28;20104;-67
2022/10/27 05:07:39;;;;;;;427.08;14.00;;;;;;;10.39;70.20;100719.72;10342562;28;20104;-66
2022/10/27 05:12:41;;;;;;;468.08;16.42;;;;;;;10.19;70.65;100721.53;10342526;28;20064;-67
2022/10/27 05:17:43;;;;;;;489.10;17.27;;;;;;;10.23;70.85;100723.94;10343737;28;20517;-67
2022/10/27 05:22:45;;;;;;;515.08;20.77;;;;;;;10.30;70.62;100716.66;10343818;28;20045;-66
2022/10/27 05:27:46;;;;;;;543.25;24.88;;;;;;;10.23;70.56;100718.72;10345092;28;20525;-66
2022/10/27 05:32:49;;;;;;;540.53;22.13;;;;;;;10.16;70.51;100719.06;10343261;28;20057;-66
2022/10/27 05:37:51;;;;;;;249.40;8.68;;;;;;;10.20;70.46;100723.22;10342710;28;20072;-66
2022/10/27 05:42:54;;;;;;;321.08;20.13;;;;;;;10.12;70.72;100718.34;10342237;28;20056;-66
2022/10/27 05:48:09;;;;;;;238.98;9.98;;;;;;;10.15;70.66;100725.22;10344067;28;20066;-66
2022/10/27 05:53:10;;;;;;;444.88;20.35;;;;;;;10.16;70.59;100712.06;10341864;28;20089;-66
2022/10/27 05:58:12;;;;;;;349.02;12.98;;;;;;;10.08;70.32;100706.34;10342245;28;20041;-66
2022/10/27 06:03:24;;;;;;;287.95;16.75;;;;;;;10.06;70.78;100712.53;10339968;28;20069;-66
2022/10/27 06:08:27;;;;;;;348.98;14.98;;;;;;;10.06;70.25;100723.00;10341665;28;20085;-67
2022/10/27 06:13:29;;;;;;;477.92;18.73;;;;;;;9.96;70.73;100729.56;10340574;28;20061;-67
2022/10/27 06:18:31;;;;;;;149.18;10.95;;;;;;;10.14;70.96;100726.97;10344349;28;20061;-67
2022/10/27 06:23:32;;;;;;;308.45;20.63;;;;;;;10.30;70.48;100734.94;10341553;28;20143;-68
2022/10/27 06:28:34;;;;;;;178.77;10.65;;;;;;;10.39;70.36;100737.16;10343812;28;20050;-67
2022/10/27 06:33:36;;;;;;;371.38;16.88;;;;;;;10.49;70.31;100741.03;10342209;28;20057;-67
2022/10/27 06:38:38;;;;;;;510.27;23.77;;;;;;;10.59;69.78;100755.38;10343013;28;20054;-67
2022/10/27 06:43:45;;;;;;;286.13;12.40;;;;;;;10.49;70.12;100738.44;10343270;28;20096;-67
2022/10/27 06:48:46;;;;;;;218.07;12.95;;;;;;;10.70;69.87;100737.44;10340817;28;20046;-74
2022/10/27 06:53:48;;;;;;;292.23;10.90;;;;;;;10.60;69.10;100741.41;10342485;28;20061;-74
2022/10/27 06:58:50;;;;;;;281.17;11.23;;;;;;;10.64;69.31;100745.56;10346780;28;20046;-74
2022/10/27 07:03:54;;;;;;;392.92;16.35;;;;;;;10.61;69.27;100744.84;10364886;28;20053;-74
2022/10/27 07:08:56;;;;;;;366.58;14.60;;;;;;;10.76;69.41;100747.59;10348312;28;20049;-74
2022/10/27 07:13:58;;;;;;;312.65;10.30;;;;;;;10.79;68.93;100754.44;10334404;28;20061;-73
2022/10/27 07:19:01;;;;;;;304.63;12.90;;;;;;;10.81;69.13;100760.44;10339439;28;20053;-74
2022/10/27 07:24:03;;;;;;;275.75;11.13;;;;;;;10.87;68.78;100754.91;10350457;28;20525;-74
2022/10/27 07:29:05;;;;;;;311.08;11.43;;;;;;;10.77;68.58;100764.13;10348571;28;20057;-75
2022/10/27 07:34:07;;;;;;;307.35;14.98;;;;;;;10.41;69.11;100764.94;10350997;28;20053;-74
2022/10/27 07:39:09;;;;;;;261.30;14.18;;;;;;;10.60;69.70;100770.19;10349343;28;20050;-74
2022/10/27 07:44:11;;;;;;;259.60;10.35;;;;;;;10.66;69.15;100772.50;10350265;28;20105;-74
2022/10/27 07:49:12;;;;;;;169.10;8.30;;;;;;;10.83;69.34;100761.22;10347934;28;20406;-74
2022/10/27 07:54:14;;;;;;;242.40;10.65;;;;;;;10.91;68.80;100756.50;10349805;28;20050;-74
2022/10/27 07:59:16;;;;;;;213.05;10.00;;;;;;;10.95;68.49;100771.94;10344082;28;20050;-74
2022/10/27 08:04:18;;;;;;;256.35;9.18;;;;;;;10.93;68.30;100765.94;10347991;28;20116;-75
2022/10/27 08:09:21;;;;;;;107.18;7.10;;;;;;;11.10;68.36;100763.41;10343107;28;20053;-74
2022/10/27 08:14:23;;;;;;;316.10;15.35;;;;;;;11.19;67.71;100759.50;10346856;28;20507;-75
2022/10/27 08:19:25;;;;;;;229.43;11.50;;;;;;;10.91;67.92;100765.16;10346079;28;20050;-74
2022/10/27 08:24:27;;;;;;;69.35;7.53;;;;;;;11.09;68.07;100761.69;10345401;28;20054;-74
2022/10/27 08:29:29;;;;;;;109.32;8.95;;;;;;;11.19;67.63;100754.25;10344665;28;20389;-75
2022/10/27 08:34:31;;;;;;;296.20;11.55;;;;;;;10.97;67.31;100758.81;10346687;28;20100;-75
2022/10/27 08:39:32;;;;;;;49.10;7.97;;;;;;;11.09;67.84;100761.69;10345712;28;20057;-74
2022/10/27 08:44:49;;;;;;;26.85;5.78;;;;;;;11.22;67.20;100762.81;10346855;28;20100;-75
2022/10/27 08:50:01;;;;;;;87.72;9.27;;;;;;;11.08;67.59;100757.41;10346022;28;20049;-74
2022/10/27 08:55:12;;;;;;;84.15;8.73;;;;;;;11.01;67.46;100755.94;10344518;28;20046;-75
2022/10/27 09:00:14;;;;;;;105.60;10.43;;;;;;;11.10;67.52;100747.69;10346203;28;20058;-75
2022/10/27 09:05:45;;;;;;;66.40;9.73;;;;;;;11.36;67.07;100754.25;10344508;28;20081;-73
2022/10/27 09:11:17;;;;;;;39.55;9.77;;;;;;;11.46;67.16;100747.63;10344797;28;20418;-74
2022/10/27 09:16:35;;;;;;;163.95;12.50;;;;;;;11.51;66.57;100744.78;10340966;28;20054;-74
2022/10/27 09:21:40;;;;;;;61.90;9.57;;;;;;;11.57;66.91;100752.31;10344307;28;20068;-74
2022/10/27 09:26:47;;;;;;;62.67;7.90;;;;;;;11.51;67.42;100744.78;10345602;28;20056;-75
2022/10/27 09:32:17;;;;;;;80.85;9.02;;;;;;;11.73;67.22;100737.50;10345532;28;20050;-75
2022/10/27 09:37:20;;;;;;;178.93;10.48;;;;;;;12.15;66.14;100732.63;10345300;28;20061;-74
2022/10/27 09:42:23;;;;;;;156.05;10.10;;;;;;;12.14;65.91;100728.34;10337992;28;20045;-75
2022/10/27 09:47:29;;;;;;;101.88;8.20;;;;;;;12.36;65.50;100720.16;10343836;28;20042;-74
2022/10/27 09:52:35;;;;;;;79.63;11.63;;;;;;;12.34;65.88;100724.66;10342272;28;20161;-74
2022/10/27 09:57:39;;;;;;;30.83;9.90;;;;;;;12.41;65.79;100723.41;10347509;28;20172;-75
2022/10/27 10:03:21;;;;;;;18.95;8.95;;;;;;;12.44;66.61;100715.34;10343417;28;20120;-74
2022/10/27 10:08:26;;;;;;;55.38;12.02;;;;;;;12.72;65.90;100705.03;10345064;28;20060;-75
2022/10/27 10:13:30;;;;;;;53.05;12.38;;;;;;;12.72;65.73;100713.72;10343299;28;20049;-75
2022/10/27 10:18:34;;;;;;;51.03;14.05;;;;;;;12.60;66.11;100697.84;10342671;28;20046;-73
2022/10/27 10:23:47;;;;;;;60.63;12.65;;;;;;;12.56;66.24;100697.16;10343191;28;20144;-75
2022/10/27 10:28:51;;;;;;;44.50;10.73;;;;;;;12.61;66.15;100691.66;10345509;28;20085;-75
2022/10/27 10:34:02;;;;;;;20.80;12.88;;;;;;;12.70;66.38;100697.22;10347930;28;20116;-75
2022/10/27 10:39:27;;;;;;;114.28;18.77;;;;;;;12.67;65.98;100688.69;10349727;28;20061;-76
2022/10/27 10:44:29;;;;;;;23.50;14.02;;;;;;;12.80;66.54;100690.53;10350197;28;20054;-74
2022/10/27 10:49:35;;;;;;;33.70;15.57;;;;;;;12.88;66.43;100679.59;10349094;28;20601;-74
2022/10/27 10:54:43;;;;;;;54.45;17.55;;;;;;;12.86;66.78;100666.53;10350371;28;20050;-74
2022/10/27 10:59:48;;;;;;;58.20;16.77;;;;;;;12.96;66.79;100661.63;10349957;28;20124;-75
2022/10/27 11:04:50;;;;;;;43.35;16.55;;;;;;;12.94;66.71;100653.81;10348376;28;21114;-74
2022/10/27 11:10:01;;;;;;;35.55;13.93;;;;;;;13.13;66.49;100655.41;10345404;28;20144;-74
2022/10/27 11:15:34;;;;;;;29.38;14.40;;;;;;;13.41;66.16;100650.19;10346112;28;20475;-75
2022/10/27 11:20:37;;;;;;;23.42;13.68;;;;;;;13.75;65.74;100634.94;10347349;28;20060;-74
2022/10/27 11:25:39;;;;;;;39.65;15.90;;;;;;;13.97;65.17;100630.97;10348160;28;20116;-75
2022/10/27 11:30:55;;;;;;;16.35;13.23;;;;;;;13.95;65.50;100623.19;10344780;28;20100;-74
2022/10/27 11:36:22;;;;;;;16.85;14.02;;;;;;;13.76;65.72;100620.00;10346711;28;20379;-74
2022/10/27 11:41:27;;;;;;;21.42;14.90;;;;;;;14.01;65.48;100606.16;10348682;28;20072;-75
2022/10/27 11:46:44;;;;;;;14.55;10.55;;;;;;;14.08;65.66;100604.84;10346634;28;20093;-75
2022/10/27 11:51:54;;;;;;;12.68;10.65;;;;;;;14.06;65.36;100604.94;10348739;28;20140;-74
2022/10/27 11:57:09;;;;;;;12.73;9.87;;;;;;;14.18;65.48;100608.59;10344323;28;20050;-75
2022/10/27 12:02:58;;;;;;;13.75;10.07;;;;;;;14.22;65.14;100600.41;10346342;28;20484;-76
2022/10/27 12:08:15;;;;;;;15.90;9.88;;;;;;;14.42;65.60;100599.09;10347810;28;20053;-73
2022/10/27 12:13:28;;;;;;;16.00;9.40;;;;;;;14.58;64.96;100584.88;10345945;28;20508;-74
2022/10/27 12:19:14;;;;;;;15.68;9.18;;;;;;;14.82;64.76;100584.22;10345069;28;20073;-76
2022/10/27 12:24:42;;;;;;;11.70;7.53;;;;;;;15.18;64.44;100579.06;10346042;28;20494;-75
2022/10/27 12:29:48;;;;;;;9.38;6.45;;;;;;;15.43;63.95;100571.16;10346897;28;20053;-75
2022/10/27 12:35:05;;;;;;;13.85;7.90;;;;;;;15.60;63.36;100568.22;10345734;28;20061;-75
2022/10/27 12:40:24;;;;;;;9.77;6.60;;;;;;;15.80;63.22;100565.00;10344508;28;20062;-75
2022/10/27 12:45:34;;;;;;;13.90;7.20;;;;;;;16.03;62.64;100561.56;10345900;28;20054;-74
2022/10/27 12:51:02;;;;;;;11.00;6.95;;;;;;;16.31;62.35;100554.25;10344292;28;20076;-75
2022/10/27 12:56:41;;;;;;;10.50;6.72;;;;;;;16.44;62.33;100544.53;10344928;28;20205;-76
2022/10/27 13:02:00;;;;;;;9.05;6.30;;;;;;;16.66;62.34;100540.16;10310264;23;20113;-83
2022/10/27 13:07:45;;;;;;;9.25;5.78;;;;;;;16.93;61.39;100531.97;10262080;28;20125;-82
2022/10/27 13:13:08;;;;;;;9.48;4.85;;;;;;;17.12;61.24;100521.63;10279879;28;20137;-83
2022/10/27 13:18:30;;;;;;;12.27;5.32;;;;;;;17.31;60.81;100513.97;10277179;28;20066;-82
2022/10/27 13:23:49;;;;;;;9.13;5.13;;;;;;;17.35;60.96;100496.94;10269458;28;20055;-82
2022/10/27 13:29:12;;;;;;;9.93;5.60;;;;;;;17.47;60.72;100493.31;10284442;28;20779;-82
2022/10/27 13:34:23;;;;;;;10.10;4.95;;;;;;;17.44;60.81;100498.88;10268404;28;20050;-82
2022/10/27 13:39:29;;;;;;;15.20;5.88;;;;;;;17.66;60.33;100495.34;10271389;28;20130;-83
2022/10/27 13:44:38;;;;;;;11.98;5.30;;;;;;;17.76;60.34;100493.63;10281813;28;20072;-83
2022/10/27 13:50:18;;;;;;;10.67;5.10;;;;;;;17.76;60.49;100489.19;10270943;28;20155;-83
2022/10/27 13:55:20;;;;;;;8.77;4.65;;;;;;;17.97;60.52;100481.31;10272275;28;20058;-82
2022/10/27 14:00:30;;;;;;;9.43;5.40;;;;;;;18.10;59.79;100476.69;10271305;28;20469;-83
2022/10/27 14:05:46;;;;;;;7.95;4.47;;;;;;;18.23;59.88;100476.56;10271883;28;20061;-82
2022/10/27 14:10:50;;;;;;;9.73;4.95;;;;;;;18.38;59.50;100477.94;10278990;28;20058;-84
2022/10/27 14:15:58;;;;;;;11.07;4.72;;;;;;;18.49;59.07;100467.28;10280908;28;20144;-83
2022/10/27 14:21:20;;;;;;;10.00;4.22;;;;;;;18.45;59.43;100471.13;10296610;28;20075;-83
2022/10/27 14:26:30;;;;;;;8.95;4.32;;;;;;;18.52;59.36;100467.03;10281215;28;20843;-84
2022/10/27 14:31:44;;;;;;;8.77;4.45;;;;;;;18.57;59.22;100463.00;10297219;28;20082;-84
2022/10/27 14:36:45;;;;;;;9.35;3.78;;;;;;;18.67;59.60;100467.53;10278746;28;20046;-84
2022/10/27 14:41:49;;;;;;;11.32;4.10;;;;;;;18.70;59.63;100468.13;10280867;28;20087;-83
2022/10/27 14:46:57;;;;;;;10.85;4.20;;;;;;;18.54;59.74;100468.56;10286155;28;20050;-84
2022/10/27 14:52:02;;;;;;;7.28;4.40;;;;;;;18.39;59.85;100464.56;10290064;28;20043;-83
2022/10/27 14:57:34;;;;;;;9.32;4.40;;;;;;;18.11;60.40;100465.16;10280725;28;20716;-83
2022/10/27 15:02:36;;;;;;;8.90;4.07;;;;;;;17.94;61.04;100467.47;10294599;28;20062;-83
2022/10/27 15:07:38;;;;;;;7.18;4.50;;;;;;;17.68;61.44;100465.16;10278331;28;20464;-83
2022/10/27 15:12:39;;;;;;;8.88;5.45;;;;;;;17.48;62.21;100468.56;10277253;28;20054;-83
2022/10/27 15:17:41;;;;;;;7.45;4.47;;;;;;;17.35;62.46;100473.13;10273893;28;20069;-82
2022/10/27 15:22:50;;;;;;;8.32;4.70;;;;;;;17.24;62.92;100467.00;10275913;28;20746;-83
2022/10/27 15:27:53;;;;;;;10.03;4.90;;;;;;;17.17;62.90;100477.19;10276646;28;20140;-83
2022/10/27 15:32:55;;;;;;;9.50;4.40;;;;;;;17.17;63.35;100471.06;10275320;28;20504;-83
2022/10/27 15:38:01;;;;;;;9.65;4.32;;;;;;;17.16;63.50;100479.97;10277199;28;20085;-83
2022/10/27 15:43:20;;;;;;;17.25;4.65;;;;;;;16.99;63.85;100484.78;10291108;28;20489;-83
2022/10/27 15:48:33;;;;;;;8.38;4.28;;;;;;;16.89;64.43;100478.50;10291663;28;20154;-83
2022/10/27 15:53:43;;;;;;;9.98;4.28;;;;;;;16.87;64.94;100484.88;10275152;28;20926;-83
2022/10/27 15:59:03;;;;;;;7.50;4.37;;;;;;;16.72;65.13;100483.38;10273274;28;20685;-81
2022/10/27 16:04:06;;;;;;;7.70;4.53;;;;;;;16.77;65.20;100484.72;10274987;28;20067;-79
2022/10/27 16:09:10;;;;;;;10.15;4.47;;;;;;;16.78;66.19;100485.56;10275701;28;20086;-80
2022/10/27 16:14:15;;;;;;;12.90;5.07;;;;;;;16.68;66.56;100479.31;10276187;28;20070;-80
2022/10/27 16:19:20;;;;;;;14.00;4.88;;;;;;;16.66;66.61;100475.94;10276193;28;20137;-81
2022/10/27 16:24:23;;;;;;;8.30;5.40;;;;;;;16.56;66.74;100485.53;10275455;28;20134;-81
2022/10/27 16:29:26;;;;;;;9.75;4.90;;;;;;;16.54;66.98;100495.34;10275171;28;20176;-81
2022/10/27 16:34:30;;;;;;;13.95;5.68;;;;;;;16.56;67.16;100496.94;10275055;28;20501;-81
2022/10/27 16:39:35;;;;;;;12.82;5.45;;;;;;;16.48;67.50;100493.19;10290242;28;20065;-81
2022/10/27 16:44:37;;;;;;;16.27;6.05;;;;;;;16.31;68.02;100504.97;10275374;28;20105;-80
2022/10/27 16:49:41;;;;;;;12.80;5.38;;;;;;;16.19;68.66;100498.81;10274788;28;20058;-81
2022/10/27 16:54:42;;;;;;;17.98;6.15;;;;;;;16.21;68.60;100488.97;10275654;28;20137;-81
2022/10/27 16:59:44;;;;;;;18.77;6.63;;;;;;;16.22;68.48;100506.47;10273288;28;20091;-80
2022/10/27 17:04:46;;;;;;;14.18;5.93;;;;;;;16.28;68.58;100507.00;10273562;28;20055;-79
2022/10/27 17:09:48;;;;;;;14.15;7.10;;;;;;;16.26;68.48;100503.63;10273120;28;20051;-80
2022/10/27 17:14:50;;;;;;;13.82;6.15;;;;;;;16.20;68.59;100504.94;10272382;28;20054;-80
2022/10/27 17:19:52;;;;;;;9.80;5.63;;;;;;;16.20;68.20;100512.84;10288500;28;20050;-80
2022/10/27 17:24:54;;;;;;;16.23;6.43;;;;;;;16.22;67.85;100522.31;10273910;28;20145;-80
2022/10/27 17:30:02;;;;;;;12.07;6.68;;;;;;;16.23;68.01;100520.53;10290416;28;20055;-80
2022/10/27 17:35:05;;;;;;;15.60;6.82;;;;;;;16.13;68.55;100520.38;10276171;28;20051;-80
2022/10/27 17:40:07;;;;;;;12.13;6.43;;;;;;;16.13;68.31;100514.25;10272720;28;20054;-80
2022/10/27 17:45:10;;;;;;;15.80;6.60;;;;;;;16.09;68.54;100518.91;10288710;28;20534;-80
2022/10/27 17:50:14;;;;;;;15.60;7.00;;;;;;;16.09;68.36;100523.34;10267386;28;20099;-80
2022/10/27 17:55:17;;;;;;;18.63;7.80;;;;;;;16.02;68.90;100530.00;10269181;28;20050;-80
2022/10/27 18:00:19;;;;;;;15.20;7.82;;;;;;;15.99;68.60;100517.03;10269373;28;20532;-80
2022/10/27 18:05:21;;;;;;;17.50;7.70;;;;;;;15.91;68.44;100511.47;10267797;28;20482;-82
2022/10/27 18:10:31;;;;;;;13.82;7.72;;;;;;;15.81;68.71;100521.88;10266980;28;20059;-82
2022/10/27 18:15:34;;;;;;;15.73;8.43;;;;;;;15.74;69.02;100523.25;10269034;28;20070;-82
2022/10/27 18:20:37;;;;;;;18.52;8.48;;;;;;;15.70;69.16;100534.97;10270543;28;21054;-82
2022/10/27 18:25:39;;;;;;;18.45;8.43;;;;;;;15.68;69.27;100546.56;10265304;28;20050;-82
2022/10/27 18:30:41;;;;;;;16.73;8.95;;;;;;;15.63;69.52;100548.72;10270201;28;20062;-81
2022/10/27 18:35:43;;;;;;;18.10;8.40;;;;;;;15.64;68.95;100542.47;10271627;28;20059;-81
2022/10/27 18:40:44;;;;;;;17.05;8.93;;;;;;;15.63;69.06;100560.09;10269943;28;20945;-82
2022/10/27 18:45:46;;;;;;;17.40;9.50;;;;;;;15.60;69.21;100541.84;10269137;28;20416;-81
2022/10/27 18:51:02;;;;;;;21.63;9.90;;;;;;;15.56;69.11;100539.53;10271311;28;20141;-82
2022/10/27 18:56:06;;;;;;;24.40;10.18;;;;;;;15.59;69.04;100534.88;10278929;28;20055;-81
2022/10/27 19:01:11;;;;;;;23.00;10.98;;;;;;;15.59;69.22;100531.41;10278395;28;20444;-82
2022/10/27 19:06:13;;;;;;;19.13;10.93;;;;;;;15.57;69.12;100530.69;10274205;28;20059;-81
2022/10/27 19:11:18;;;;;;;30.85;12.35;;;;;;;15.57;69.56;100538.59;10280061;28;20047;-82
2022/10/27 19:16:24;;;;;;;22.60;12.85;;;;;;;15.55;69.59;100530.78;10279111;28;20050;-81
2022/10/27 19:21:27;;;;;;;27.35;14.27;;;;;;;15.53;69.58;100530.03;10285627;28;20042;-81
2022/10/27 19:26:32;;;;;;;20.80;12.63;;;;;;;15.45;69.57;100537.59;10278594;28;20050;-81
2022/10/27 19:31:37;;;;;;;27.20;13.43;;;;;;;15.23;69.76;100532.16;10293249;28;20128;-81
2022/10/27 19:36:40;;;;;;;24.05;12.80;;;;;;;15.11;69.82;100533.00;10276490;28;20444;-81
2022/10/27 19:41:43;;;;;;;18.75;12.05;;;;;;;14.96;69.64;100528.81;10276631;28;20144;-81
2022/10/27 19:46:45;;;;;;;23.77;13.15;;;;;;;14.77;70.22;100528.34;10277033;28;20105;-81
2022/10/27 19:51:49;;;;;;;22.80;11.85;;;;;;;14.66;70.63;100536.13;10293372;28;20059;-81
2022/10/27 19:56:51;;;;;;;23.48;12.95;;;;;;;14.50;70.53;100534.53;10277107;28;20069;-81
2022/10/27 20:01:57;;;;;;;31.40;15.27;;;;;;;14.40;71.13;100530.78;10276793;28;20058;-81
2022/10/27 20:06:59;;;;;;;41.05;22.63;;;;;;;14.26;71.25;100530.84;10277169;28;20051;-81
2022/10/27 20:12:01;;;;;;;38.90;21.27;;;;;;;14.23;71.02;100531.03;10279718;28;20062;-82
2022/10/27 20:17:04;;;;;;;27.08;16.67;;;;;;;14.14;70.77;100534.28;10278022;28;20058;-81
2022/10/27 20:22:05;;;;;;;41.70;23.00;;;;;;;14.08;70.90;100539.94;10277594;28;20062;-81
2022/10/27 20:27:07;;;;;;;32.80;20.67;;;;;;;13.98;70.86;100536.22;10277070;28;20055;-82
2022/10/27 20:32:09;;;;;;;50.92;26.95;;;;;;;13.91;71.19;100531.44;10277305;28;20055;-82
2022/10/27 20:37:11;;;;;;;119.03;25.35;;;;;;;13.80;71.43;100528.66;10271712;28;20069;-81
2022/10/27 20:42:12;;;;;;;35.45;19.67;;;;;;;13.78;71.40;100536.63;10275774;28;20050;-82
2022/10/27 20:47:14;;;;;;;386.15;30.13;;;;;;;13.66;71.58;100543.50;10274784;28;20412;-82
2022/10/27 20:52:16;;;;;;;58.95;27.05;;;;;;;13.52;71.98;100533.00;10273921;28;20051;-82
2022/10/27 20:57:17;;;;;;;48.13;23.10;;;;;;;13.50;72.26;100531.41;10274903;28;20070;-82
2022/10/27 21:02:19;;;;;;;43.75;18.92;;;;;;;13.52;71.76;100529.53;10275087;28;20141;-81
2022/10/27 21:07:21;;;;;;;59.00;24.50;;;;;;;13.53;71.76;100528.59;10275777;28;20065;-81
2022/10/27 21:12:23;;;;;;;299.95;33.90;;;;;;;13.54;71.62;100536.38;10275398;28;20058;-81
2022/10/27 21:17:25;;;;;;;101.97;25.17;;;;;;;13.58;71.62;100535.25;10274006;28;21079;-81
2022/10/27 21:22:26;;;;;;;61.42;23.85;;;;;;;13.57;71.70;100533.59;10274392;28;20114;-81
2022/10/27 21:27:28;;;;;;;337.13;34.45;;;;;;;13.49;71.54;100516.59;10279139;28;20439;-81
2022/10/27 21:32:30;;;;;;;141.50;28.08;;;;;;;13.41;71.47;100522.28;10288323;28;20046;-81
2022/10/27 21:37:32;;;;;;;57.42;22.90;;;;;;;13.33;71.46;100519.28;10275816;28;20055;-80
2022/10/27 21:42:33;;;;;;;23.20;11.88;;;;;;;13.31;71.44;100531.66;10274871;28;20046;-81
2022/10/27 21:47:35;;;;;;;33.88;15.75;;;;;;;13.16;71.49;100532.63;10273377;28;20053;-81
2022/10/27 21:52:37;;;;;;;33.67;15.25;;;;;;;13.09;71.52;100535.72;10275013;28;20051;-81
2022/10/27 21:57:39;;;;;;;339.58;25.48;;;;;;;13.06;71.18;100536.75;10274073;28;20069;-81
2022/10/27 22:02:40;;;;;;;554.53;28.58;;;;;;;12.90;71.67;100542.03;10273379;28;20135;-81
2022/10/27 22:07:42;;;;;;;285.40;28.20;;;;;;;12.85;71.60;100536.25;10273440;28;20059;-81
2022/10/27 22:12:44;;;;;;;51.80;18.33;;;;;;;12.88;71.82;100528.16;10274339;28;20062;-81
2022/10/27 22:17:45;;;;;;;368.95;26.88;;;;;;;12.97;71.54;100513.66;10273785;28;20149;-81
2022/10/27 22:22:47;;;;;;;314.65;26.10;;;;;;;12.98;71.57;100516.19;10273246;28;20057;-81
2022/10/27 22:27:50;;;;;;;75.00;19.33;;;;;;;13.08;71.19;100519.13;10274885;28;20074;-80
2022/10/27 22:32:52;;;;;;;318.23;24.40;;;;;;;12.94;70.91;100511.22;10281115;28;20058;-81
2022/10/27 22:37:54;;;;;;;23.20;12.48;;;;;;;12.84;71.12;100516.16;10281200;28;20138;-81
2022/10/27 22:42:56;;;;;;;462.40;25.58;;;;;;;12.73;71.19;100517.75;10280964;28;20061;-81
2022/10/27 22:47:58;;;;;;;658.90;33.10;;;;;;;12.63;71.53;100516.59;10279979;28;20054;-80
2022/10/27 22:52:59;;;;;;;589.92;35.67;;;;;;;12.60;71.50;100520.25;10280363;28;20062;-79
2022/10/27 22:58:01;;;;;;;393.67;21.60;;;;;;;12.53;71.46;100502.34;10280703;28;20428;-80